• Join FlightAware (Why Join?)
  • Login
  • US Flag GB Flag 
21:57 EST


 

Airport Tracker/Info


-or-


 

Live Flight TrackerFlight Track Log ✈ EJA922 ✈ 19-Aug-2013 ✈ KBZN - KSDL

Flight Track Log - Related Links

Times and Time Zones

All times are in EDT time to prevent confusion due to time zone crossing. See the EJA922 flight status page for this flight to view local times or setup timezone preferences in your user account.

Time Position Orientation Groundspeed Altitude Reporting Facility
EDT Latitude Longitude Course Direction KTS MPH feet Rate Location/Type
14:56 45.7642 -111.1342 199° South 174 200 5,300  Level Salt Lake Center
14:57 45.7219 -111.1631 206° Southwest 200 230 8,000 2,460 Climbing Salt Lake Center
14:58 45.7056 -111.2450 254° West 217 250 10,400 2,160 Climbing Salt Lake Center
14:59 45.6646 -111.6695 195° South  Level FlightAware Approximate
14:59 45.6636 -111.3247 233° Southwest 274 315 12,500  Level Salt Lake Center
15:00 45.5436 -111.7026 196° South  Level FlightAware Approximate
15:00 45.5686 -111.3369 185° South 337 388 14,100  Level Salt Lake Center
15:01 45.4251 -111.7542 199° South  Level FlightAware Approximate
15:01 45.4633 -111.3497 185° South 369 425 16,000  Level Salt Lake Center
15:02 45.3350 -111.3647 185° South 383 441 18,200 1,980 Climbing Salt Lake Center
15:03 45.2264 -111.3786 185° South 390 449 20,200 1,920 Climbing Salt Lake Center
15:04 45.1183 -111.3917 185° South 389 448 22,200 1,980 Climbing Salt Lake Center
15:05 45.0014 -111.4061 185° South 394 453 24,400 1,920 Climbing Salt Lake Center
15:06 44.8950 -111.4192 185° South 398 458 26,200 1,680 Climbing Salt Lake Center
15:07 44.7675 -111.4353 185° South 409 471 27,900 1,380 Climbing Salt Lake Center
15:08 44.6550 -111.4494 185° South 420 483 29,100 1,080 Climbing Salt Lake Center
15:09 44.5172 -111.4678 185° South 470 541 30,200 1,020 Climbing Salt Lake Center
15:10 44.3803 -111.4819 184° South 459 528 31,300 960 Climbing Salt Lake Center
15:11 44.2542 -111.4975 185° South 472 543 32,200 960 Climbing Salt Lake Center
15:12 44.1033 -111.5158 185° South 485 558 33,400 960 Climbing Salt Lake Center
15:13 43.9697 -111.5317 185° South 498 573 34,300 960 Climbing Salt Lake Center
15:14 43.8144 -111.5494 185° South 501 577 35,400 960 Climbing Salt Lake Center
15:15 43.6819 -111.5658 185° South 500 575 36,300 720 Climbing Salt Lake Center
15:16 43.5494 -111.5803 185° South 499 574 37,000 300 Climbing Salt Lake Center
15:17 43.3911 -111.5978 185° South 509 586 37,000 180 Level Salt Lake Center
15:18 43.2542 -111.6142 185° South 514 592 37,400 720 Climbing Salt Lake Center
15:19 43.0986 -111.6322 185° South 504 580 38,500 960 Climbing Salt Lake Center
15:20 42.9661 -111.6489 185° South 500 575 39,400 960 Climbing Salt Lake Center
15:21 42.8139 -111.6664 185° South 493 567 40,500 720 Climbing Salt Lake Center
15:23 42.6808 -111.6792 184° South 486 559 41,000 240 Climbing Salt Lake Center
15:24 42.5442 -111.6956 185° South 493 567 41,000  Level Salt Lake Center
15:25 42.4053 -111.7111 185° South 500 575 41,000  Level Salt Lake Center
15:26 42.2381 -111.7283 184° South 502 578 41,000  Level Salt Lake Center
15:28 41.9608 -111.7603 185° South 499 574 41,000  Level Salt Lake Center
15:29 41.8217 -111.7742 184° South 502 578 41,000  Level Salt Lake Center
15:30 41.6822 -111.7906 185° South 501 577 41,000  Level Salt Lake Center
15:31 41.5431 -111.8058 185° South 503 579 41,000  Level Salt Lake Center
15:32 41.3772 -111.8239 185° South 500 575 41,000  Level Salt Lake Center
15:33 41.2386 -111.8392 185° South 500 575 41,000  Level Salt Lake Center
15:34 41.0919 -111.8547 185° South 503 579 41,000  Level Salt Lake Center
15:35 40.9722 -111.8681 185° South 502 578 41,000  Level Salt Lake Center
15:36 40.8069 -111.8842 184° South 510 587 41,000  Level Salt Lake Center
15:37 40.6664 -111.8981 184° South 511 588 41,000  Level Salt Lake Center
15:38 40.5297 -111.9139 185° South 496 571 41,000  Level Salt Lake Center
15:39 40.3925 -111.9289 185° South 497 572 41,000  Level Salt Lake Center
15:40 40.2542 -111.9469 186° South 509 586 41,000  Level Salt Lake Center
15:41 40.0878 -111.9697 186° South 499 574 41,000  Level Salt Lake Center
15:42 39.9506 -111.9900 186° South 499 574 41,000  Level Salt Lake Center
15:43 39.8142 -112.0083 186° South 494 568 41,000  Level Salt Lake Center
15:44 39.6750 -112.0292 187° South 499 574 41,000  Level Salt Lake Center
15:45 39.5367 -112.0492 186° South 501 577 41,000  Level Salt Lake Center
15:46 39.3975 -112.0678 186° South 498 573 41,000  Level Salt Lake Center
15:47 39.2319 -112.0928 187° South 498 573 41,000  Level Salt Lake Center
15:48 39.0872 -112.1136 186° South 502 578 41,000  Level Salt Lake Center
15:49 38.9478 -112.1317 186° South 503 579 41,000  Level Salt Lake Center
15:50 38.8072 -112.1533 187° South 506 582 41,000  Level Salt Lake Center
15:51 38.6681 -112.1836 190° South 507 583 41,000  Level Salt Lake Center
15:53 38.5306 -112.2219 192° South 505 581 41,000  Level Salt Lake Center
15:54 38.3939 -112.2611 193° South 502 578 41,000  Level Salt Lake Center
15:55 38.2319 -112.3053 192° South 496 571 41,000  Level Salt Lake Center
15:56 38.0969 -112.3403 192° South 493 567 41,000  Level Salt Lake Center
15:57 37.9636 -112.3758 192° South 490 564 41,000  Level Salt Lake Center
15:58 37.8300 -112.4103 192° South 488 562 41,000  Level Salt Lake Center
15:59 37.6950 -112.4392 190° South 487 560 41,000  Level Salt Lake Center
15:59 37.6119 -112.4403 181° South 476 548 41,000  Level Los Angeles Center
16:00 37.4719 -112.4342 178° South 490 564 41,000  Level Los Angeles Center
16:01 37.3364 -112.4164 174° South 486 559 41,000 -660 Level Los Angeles Center
16:03 37.0381 -112.3697 173° South 489 563 39,100 -840 Descending Los Angeles Center
16:05 36.9006 -112.3497 173° South 494 568 38,400 -780 Descending Los Angeles Center
16:06 36.7614 -112.3581 183° South 496 571 37,500 -1,020 Descending Los Angeles Center
16:07 36.6219 -112.3686 183° South 501 577 36,300 -1,740 Descending Los Angeles Center
16:08 36.4858 -112.3758 182° South 492 566 34,000 -1,620 Descending Los Angeles Center
16:09 36.3275 -112.3858 183° South 476 548 33,000 -480 Descending Los Angeles Center
16:10 36.1889 -112.4022 185° South 499 574 33,000  Level Los Angeles Center
16:11 36.0525 -112.4439 194° South 503 579 33,000  Level Los Angeles Center
16:12 35.9219 -112.4822 193° South 506 582 33,000 -540 Level Los Angeles Center
16:13 35.7861 -112.5244 194° South 506 582 32,000 -1,740 Descending Los Angeles Center
16:14 35.6450 -112.5667 194° South 522 601 29,500 -1,500 Descending Los Angeles Center
16:15 35.4833 -112.5225 167° South 499 574 29,000 -240 Descending Los Angeles Center
16:16 35.3325 -112.4442 157° South 489 563 29,000 -240 Level Los Angeles Center
16:17 35.2067 -112.3783 157° South 493 567 28,500 -780 Descending Los Angeles Center
16:18 35.0778 -112.3114 157° South 505 581 27,400 -1,200 Descending Los Angeles Center
16:19 34.8994 -112.2228 158° South 494 568 25,800 -1,320 Descending Albuquerque Center
16:21 34.7769 -112.1592 157° South 484 557 24,400 -2,040 Descending Albuquerque Center
16:22 34.6578 -112.0989 157° South 480 552 21,600 -2,880 Descending Albuquerque Center
16:23 34.5397 -112.0381 157° South 467 537 18,500 -3,120 Descending Albuquerque Center
16:24 34.4256 -111.9803 157° South 450 518 15,300 -3,000 Descending Albuquerque Center
16:25 34.3183 -111.9256 157° South 429 494 12,400 -2,160 Descending Albuquerque Center
16:26 34.1986 -111.9197 178° South 354 407 10,900 -900 Descending Albuquerque Center
16:27 34.1194 -111.9258 184° South 295 339 10,600 -960 Descending Albuquerque Center
16:28 34.0442 -111.9297 182° South 277 319 9,000 -1,680 Descending Albuquerque Center
16:29 33.9700 -111.9347 183° South 273 314 7,200 -1,020 Descending Albuquerque Center
16:30 33.8864 -111.9289 177° South 250 288 6,900 -420 Descending Albuquerque Center
16:31 33.8222 -111.9114 167° South 240 276 6,400 -960 Descending Albuquerque Center
16:32 33.7656 -111.8919 164° South 218 251 5,000 -1,260 Descending Albuquerque Center
16:33 33.7133 -111.8753 165° South 197 227 3,800 -1,080 Descending Albuquerque Center
16:34 33.6719 -111.8686 172° South 169 194 2,800 -1,020 Descending Albuquerque Center
16:35 33.6392 -111.8914 210° Southwest 153 176 1,800 -1,020 Descending Albuquerque Center
16:37 33.6229 -111.9105 180° South  Level Estimated